createdAt,value
2018-08-17T00:00:33.256Z,99.99
2018-08-17T00:01:33.317Z,99.99
2018-08-17T00:02:33.398Z,99.99
2018-08-17T00:03:33.437Z,99.99
2018-08-17T00:04:33.497Z,99.99
2018-08-17T00:05:33.560Z,99.99
2018-08-17T00:06:33.619Z,99.99
2018-08-17T00:07:33.682Z,99.99
2018-08-17T00:08:33.739Z,99.99
2018-08-17T00:09:33.801Z,99.99
2018-08-17T00:10:33.868Z,99.99
2018-08-17T00:11:33.922Z,99.99
2018-08-17T00:12:33.981Z,99.99
2018-08-17T00:13:34.042Z,99.99
2018-08-17T00:14:34.101Z,99.99
2018-08-17T00:15:34.164Z,99.99
2018-08-17T00:16:34.223Z,99.99
2018-08-17T00:17:34.283Z,99.99
2018-08-17T00:18:34.345Z,99.99
2018-08-17T00:19:34.403Z,99.99
2018-08-17T00:20:34.467Z,99.99
2018-08-17T00:21:34.524Z,99.99
2018-08-17T00:22:34.584Z,99.99
2018-08-17T00:23:34.648Z,99.99
2018-08-17T00:24:34.709Z,99.99
2018-08-17T00:25:34.766Z,99.99
2018-08-17T00:26:34.835Z,99.99
2018-08-17T00:27:34.888Z,99.99
2018-08-17T00:28:34.946Z,99.99
2018-08-17T00:29:35.008Z,99.99
2018-08-17T00:30:35.066Z,99.99
2018-08-17T00:31:35.127Z,99.99
2018-08-17T00:32:35.187Z,99.99
2018-08-17T00:33:35.248Z,99.99
2018-08-17T00:34:35.308Z,99.99
2018-08-17T00:35:35.367Z,99.99
2018-08-17T00:36:35.428Z,99.99
2018-08-17T00:37:35.637Z,99.99
2018-08-17T00:38:35.548Z,99.99
2018-08-17T00:39:35.608Z,99.99
2018-08-17T00:40:35.669Z,99.99
2018-08-17T00:41:35.729Z,99.99
2018-08-17T00:42:35.788Z,99.99
2018-08-17T00:44:23.302Z,99.99
2018-08-17T00:45:23.361Z,99.99
2018-08-17T00:46:23.421Z,99.99
2018-08-17T00:47:23.485Z,99.99
2018-08-17T00:48:23.542Z,99.99
2018-08-17T00:49:23.602Z,99.99
2018-08-17T00:50:23.663Z,99.99
2018-08-17T00:51:23.722Z,99.99
2018-08-17T00:52:23.782Z,99.99
2018-08-17T00:53:23.842Z,99.99
2018-08-17T00:54:23.902Z,99.99
2018-08-17T00:55:23.962Z,99.99
2018-08-17T00:56:24.023Z,99.99
2018-08-17T00:57:24.083Z,99.99
2018-08-17T00:58:24.142Z,99.99
2018-08-17T00:59:24.203Z,99.99
2018-08-17T01:00:24.262Z,99.99
2018-08-17T01:01:24.323Z,99.99
2018-08-17T01:02:24.382Z,99.99
2018-08-17T01:03:24.442Z,99.99
2018-08-17T01:04:24.503Z,99.99
2018-08-17T01:05:24.566Z,99.99
2018-08-17T01:06:24.624Z,99.99
2018-08-17T01:07:24.684Z,99.99
2018-08-17T01:08:24.742Z,99.99
2018-08-17T01:09:24.804Z,99.99
2018-08-17T01:10:24.862Z,99.99
2018-08-17T01:11:24.922Z,99.99
2018-08-17T01:12:24.983Z,99.99
2018-08-17T01:13:25.046Z,99.99
2018-08-17T01:14:25.102Z,99.99
2018-08-17T01:15:25.162Z,99.99
2018-08-17T01:16:25.222Z,99.99
2018-08-17T01:17:25.283Z,99.99
2018-08-17T01:18:25.344Z,99.99
2018-08-17T01:19:25.405Z,99.99
2018-08-17T01:20:25.462Z,99.99
2018-08-17T01:21:25.522Z,99.99
2018-08-17T01:22:25.581Z,99.99
2018-08-17T01:23:25.640Z,99.99
2018-08-17T01:24:25.704Z,99.99
2018-08-17T01:25:25.763Z,99.99
2018-08-17T01:26:25.824Z,99.99
2018-08-17T01:27:25.880Z,99.99
2018-08-17T01:28:25.941Z,99.99
2018-08-17T01:29:26.004Z,99.99
2018-08-17T01:30:26.061Z,99.99
2018-08-17T01:31:26.120Z,99.99
2018-08-17T01:32:26.181Z,99.99
2018-08-17T01:33:26.244Z,99.99
2018-08-17T01:34:26.301Z,99.99
2018-08-17T01:35:26.360Z,99.99
2018-08-17T01:36:26.420Z,99.99
2018-08-17T01:37:26.480Z,99.99
2018-08-17T01:38:26.546Z,99.99
2018-08-17T01:39:26.598Z,99.99
2018-08-17T01:40:26.658Z,99.99
2018-08-17T01:41:26.719Z,99.99
2018-08-17T01:42:26.779Z,99.99
2018-08-17T01:43:26.838Z,99.99
2018-08-17T01:44:26.898Z,99.99
2018-08-17T01:45:26.958Z,99.99
2018-08-17T01:46:27.018Z,99.99
2018-08-17T01:47:27.077Z,99.99
2018-08-17T01:48:27.137Z,99.99
2018-08-17T01:49:27.197Z,99.99
2018-08-17T01:50:27.256Z,99.99
2018-08-17T01:52:44.857Z,99.99
2018-08-17T01:53:44.916Z,99.99
2018-08-17T01:54:44.977Z,99.99
2018-08-17T01:55:45.037Z,99.99
2018-08-17T01:56:45.095Z,99.99
2018-08-17T01:57:45.155Z,99.99
2018-08-17T01:58:45.216Z,99.99
2018-08-17T01:59:45.276Z,99.99
2018-08-17T02:00:45.336Z,99.99
2018-08-17T02:01:45.395Z,99.99
2018-08-17T02:02:45.454Z,99.99
2018-08-17T02:03:45.515Z,99.99
2018-08-17T02:04:45.574Z,99.99
2018-08-17T02:05:45.633Z,99.99
2018-08-17T02:06:45.694Z,99.99
2018-08-17T02:07:45.754Z,99.99
2018-08-17T02:08:45.813Z,99.99
2018-08-17T02:09:45.874Z,99.99
2018-08-17T02:10:45.933Z,99.99
2018-08-17T02:11:45.995Z,99.99
2018-08-17T02:12:46.051Z,99.99
2018-08-17T02:13:46.112Z,99.99
2018-08-17T02:14:46.217Z,99.99
2018-08-17T02:15:46.232Z,99.99
2018-08-17T02:16:46.300Z,99.99
2018-08-17T02:17:46.350Z,99.99
2018-08-17T02:18:46.410Z,99.99
2018-08-17T02:19:46.470Z,99.99
2018-08-17T02:20:46.529Z,99.99
2018-08-17T02:21:46.590Z,99.99
2018-08-17T02:22:46.649Z,99.99
2018-08-17T02:23:46.709Z,99.99
2018-08-17T02:24:46.779Z,99.99
2018-08-17T02:25:46.833Z,99.99
2018-08-17T02:26:46.889Z,99.99
2018-08-17T02:27:46.948Z,99.99
2018-08-17T02:28:47.007Z,99.99
2018-08-17T02:29:47.066Z,99.99
2018-08-17T02:30:47.127Z,99.99
2018-08-17T02:31:47.188Z,99.99
2018-08-17T02:32:47.245Z,99.99
2018-08-17T02:33:47.306Z,99.99
2018-08-17T02:34:47.366Z,99.99
2018-08-17T02:35:47.427Z,99.99
2018-08-17T02:36:47.484Z,99.99
2018-08-17T02:37:47.544Z,99.99
2018-08-17T02:38:47.757Z,99.99
2018-08-17T02:39:47.664Z,99.99
2018-08-17T02:40:47.722Z,99.99
2018-08-17T02:41:47.783Z,99.99
2018-08-17T02:42:47.845Z,99.99
2018-08-17T02:43:47.903Z,99.99
2018-08-17T02:44:47.961Z,99.99
2018-08-17T02:45:48.023Z,99.99
2018-08-17T02:46:48.081Z,99.99
2018-08-17T02:47:48.141Z,99.99
2018-08-17T02:48:48.200Z,99.99
2018-08-17T02:50:30.699Z,99.99
2018-08-17T02:51:30.758Z,99.99
2018-08-17T02:52:30.818Z,99.99
2018-08-17T02:53:30.878Z,99.99
2018-08-17T02:54:30.937Z,99.99
2018-08-17T02:55:30.997Z,99.99
2018-08-17T02:56:31.057Z,99.99
2018-08-17T02:57:31.117Z,99.99
2018-08-17T02:58:31.176Z,99.99
2018-08-17T02:59:31.263Z,99.99
2018-08-17T03:00:31.296Z,99.99
2018-08-17T03:01:31.355Z,99.99
2018-08-17T03:02:31.415Z,99.99
2018-08-17T03:03:31.727Z,99.99
2018-08-17T03:04:31.542Z,99.99
2018-08-17T03:05:31.593Z,99.99
2018-08-17T03:06:31.658Z,99.99
2018-08-17T03:07:31.714Z,99.99
2018-08-17T03:08:31.773Z,99.99
2018-08-17T03:09:31.833Z,99.99
2018-08-17T03:10:31.891Z,99.99
2018-08-17T03:11:31.951Z,99.99
2018-08-17T03:12:32.011Z,99.99
2018-08-17T03:13:32.072Z,99.99
2018-08-17T03:14:32.131Z,99.99
2018-08-17T03:15:32.190Z,99.99
2018-08-17T03:16:32.249Z,99.99
2018-08-17T03:17:32.310Z,99.99
2018-08-17T03:18:32.621Z,99.99
2018-08-17T03:19:32.428Z,99.99
2018-08-17T03:20:32.488Z,99.99
2018-08-17T03:22:55.218Z,99.99
2018-08-17T03:23:55.278Z,99.99
2018-08-17T03:24:55.339Z,99.99
2018-08-17T03:25:55.398Z,99.99
2018-08-17T03:26:55.458Z,99.99
2018-08-17T03:27:55.516Z,99.99
2018-08-17T03:28:55.577Z,99.99
2018-08-17T03:29:55.637Z,99.99
2018-08-17T03:30:55.703Z,99.99
2018-08-17T03:31:55.756Z,99.99
2018-08-17T03:32:55.816Z,99.99
2018-08-17T03:33:55.878Z,99.99
2018-08-17T03:34:55.935Z,99.99
2018-08-17T03:35:55.994Z,99.99
2018-08-17T03:36:56.056Z,99.99
2018-08-17T03:37:56.118Z,99.99
2018-08-17T03:38:56.173Z,99.99
2018-08-17T03:39:56.234Z,99.99
2018-08-17T03:40:56.293Z,99.99
2018-08-17T03:41:56.353Z,99.99
2018-08-17T03:42:56.412Z,99.99
2018-08-17T03:43:56.472Z,99.99
2018-08-17T03:44:56.532Z,99.99
2018-08-17T03:45:56.591Z,99.99
2018-08-17T03:46:57.083Z,99.99
2018-08-17T03:47:56.710Z,99.99
2018-08-17T03:48:56.770Z,99.99
2018-08-17T03:49:56.834Z,99.99
2018-08-17T03:50:56.889Z,99.99
2018-08-17T03:51:56.958Z,99.99
2018-08-17T03:52:57.007Z,99.99
2018-08-17T03:53:57.170Z,99.99
2018-08-17T03:54:57.127Z,99.99
2018-08-17T03:55:57.186Z,99.99
2018-08-17T03:56:57.249Z,99.99
2018-08-17T03:57:57.306Z,99.99
2018-08-17T03:58:57.367Z,99.99
2018-08-17T03:59:58.115Z,99.99
2018-08-17T04:00:57.926Z,99.99
2018-08-17T04:01:58.203Z,99.99
2018-08-17T04:02:57.624Z,99.99
2018-08-17T04:03:57.663Z,99.99
2018-08-17T04:04:57.750Z,99.99
2018-08-17T04:05:57.798Z,99.99
2018-08-17T04:06:57.880Z,99.99
2018-08-17T04:07:57.905Z,99.99
2018-08-17T04:08:57.962Z,99.99
2018-08-17T04:09:58.021Z,99.99
2018-08-17T04:10:58.082Z,99.99
2018-08-17T04:11:58.140Z,99.99
2018-08-17T04:12:58.201Z,99.99
2018-08-17T04:13:58.262Z,99.99
2018-08-17T04:14:58.319Z,99.99
2018-08-17T04:15:58.378Z,99.99
2018-08-17T04:16:58.439Z,99.99
2018-08-17T04:17:58.499Z,99.99
2018-08-17T04:18:58.558Z,99.99
2018-08-17T04:19:58.618Z,99.99
2018-08-17T04:20:58.679Z,99.99
2018-08-17T04:21:58.738Z,99.99
2018-08-17T04:22:58.797Z,99.99
2018-08-17T04:23:58.962Z,99.99
2018-08-17T04:24:58.917Z,99.99
2018-08-17T04:25:58.975Z,99.99
2018-08-17T04:26:59.035Z,99.99
2018-08-17T04:27:59.095Z,99.99
2018-08-17T04:28:59.156Z,99.99
2018-08-17T04:29:59.245Z,99.99
2018-08-17T04:30:59.274Z,99.99
2018-08-17T04:31:59.336Z,99.99
2018-08-17T04:32:59.393Z,99.99
2018-08-17T04:33:59.454Z,99.99
2018-08-17T04:34:59.513Z,99.99
2018-08-17T04:35:59.574Z,99.99
2018-08-17T04:36:59.632Z,99.99
2018-08-17T04:37:59.693Z,99.99
2018-08-17T04:38:59.751Z,99.99
2018-08-17T04:39:59.812Z,99.99
2018-08-17T04:40:59.872Z,99.99
2018-08-17T04:41:59.931Z,99.99
2018-08-17T04:42:59.991Z,99.99
2018-08-17T04:44:00.055Z,99.99
2018-08-17T04:45:00.112Z,99.99
2018-08-17T04:46:00.170Z,99.99
2018-08-17T04:47:00.230Z,99.99
2018-08-17T04:48:00.291Z,99.99
2018-08-17T04:49:00.350Z,99.99
2018-08-17T04:50:00.408Z,99.99
2018-08-17T04:51:00.470Z,99.99
2018-08-17T04:52:00.531Z,99.99
2018-08-17T04:53:00.588Z,99.99
2018-08-17T04:54:00.652Z,99.99
2018-08-17T04:55:00.708Z,99.99
2018-08-17T04:56:00.766Z,99.99
2018-08-17T04:57:00.827Z,99.99
2018-08-17T04:58:00.888Z,99.99
2018-08-17T04:59:00.949Z,99.99
2018-08-17T05:00:01.006Z,99.99
2018-08-17T05:01:01.067Z,99.99
2018-08-17T05:02:01.126Z,99.99
2018-08-17T05:03:01.185Z,99.99
2018-08-17T05:04:01.246Z,99.99
2018-08-17T05:05:01.312Z,99.99
2018-08-17T05:06:01.366Z,99.99
2018-08-17T05:07:01.424Z,99.99
2018-08-17T05:08:01.483Z,99.99
2018-08-17T05:09:01.615Z,99.99
2018-08-17T05:10:01.607Z,99.99
2018-08-17T05:11:02.214Z,99.99
2018-08-17T05:12:02.087Z,99.99
2018-08-17T05:13:01.790Z,99.99
2018-08-17T05:14:01.842Z,99.99
2018-08-17T05:15:01.902Z,99.99
2018-08-17T05:16:01.961Z,99.99
2018-08-17T05:17:02.024Z,99.99
2018-08-17T05:18:02.085Z,99.99
2018-08-17T05:19:02.140Z,99.99
2018-08-17T05:20:02.205Z,99.99
2018-08-17T05:21:02.260Z,99.99
2018-08-17T05:22:02.325Z,99.99
2018-08-17T05:23:02.386Z,99.99
2018-08-17T05:24:02.439Z,99.99
2018-08-17T05:25:02.503Z,99.99
2018-08-17T05:26:02.584Z,99.99
2018-08-17T05:27:02.617Z,99.99
2018-08-17T05:28:02.680Z,99.99
2018-08-17T05:29:02.738Z,99.99
2018-08-17T05:30:02.797Z,99.99
2018-08-17T05:31:02.857Z,99.99
2018-08-17T05:32:02.917Z,99.99
2018-08-17T05:33:02.976Z,99.99
2018-08-17T05:34:03.037Z,99.99
2018-08-17T05:35:03.095Z,99.99
2018-08-17T05:36:03.183Z,99.99
2018-08-17T05:37:03.216Z,99.99
2018-08-17T05:38:03.276Z,99.99
2018-08-17T05:39:03.336Z,99.99
2018-08-17T05:40:03.396Z,99.99
2018-08-17T05:41:03.458Z,99.99
2018-08-17T05:42:03.515Z,99.99
2018-08-17T05:43:03.575Z,99.99
2018-08-17T05:44:03.635Z,99.99
2018-08-17T05:45:04.015Z,99.99
2018-08-17T05:46:03.756Z,99.99
2018-08-17T05:47:03.814Z,99.99
2018-08-17T05:48:03.878Z,99.99
2018-08-17T05:49:03.935Z,99.99
2018-08-17T05:50:03.995Z,99.99
2018-08-17T05:51:04.054Z,99.99
2018-08-17T05:52:04.114Z,99.99
2018-08-17T05:53:04.176Z,99.99
2018-08-17T05:54:04.234Z,99.99
2018-08-17T05:55:04.293Z,99.99
2018-08-17T05:56:04.355Z,99.99
2018-08-17T05:57:04.414Z,99.99
2018-08-17T05:58:04.480Z,99.99
2018-08-17T05:59:04.570Z,99.99
2018-08-17T06:00:05.207Z,99.99
2018-08-17T06:01:04.656Z,99.99
2018-08-17T06:02:04.717Z,99.99
2018-08-17T06:03:04.776Z,99.99
2018-08-17T06:04:04.837Z,99.99
2018-08-17T06:05:04.896Z,99.99
2018-08-17T06:06:04.962Z,99.99
2018-08-17T06:07:05.018Z,99.99
2018-08-17T06:08:05.079Z,99.99
2018-08-17T06:09:05.264Z,99.99
2018-08-17T06:10:06.039Z,99.99
2018-08-17T06:11:05.413Z,99.99
2018-08-17T06:12:05.321Z,99.99
2018-08-17T06:13:05.382Z,99.99
2018-08-17T06:14:05.443Z,99.99
2018-08-17T06:15:05.502Z,99.99
2018-08-17T06:16:05.563Z,99.99
2018-08-17T06:17:05.624Z,99.99
2018-08-17T06:18:06.312Z,99.99
2018-08-17T06:19:05.768Z,99.99
2018-08-17T06:20:05.806Z,99.99
2018-08-17T06:21:05.867Z,99.99
2018-08-17T06:22:05.928Z,99.99
2018-08-17T06:23:05.989Z,99.99
2018-08-17T06:24:06.048Z,99.99
2018-08-17T06:25:06.110Z,99.99
2018-08-17T06:26:06.170Z,99.99
2018-08-17T06:27:06.231Z,99.99
2018-08-17T06:28:06.293Z,99.99
2018-08-17T06:29:06.353Z,99.99
2018-08-17T06:30:06.416Z,99.99
2018-08-17T06:31:06.473Z,99.99
2018-08-17T06:32:06.535Z,99.99
2018-08-17T06:33:06.595Z,99.99
2018-08-17T06:34:06.656Z,99.99
2018-08-17T06:35:06.718Z,99.99
2018-08-17T06:36:06.839Z,99.99
2018-08-17T06:37:07.646Z,99.99
2018-08-17T06:38:06.900Z,99.99
2018-08-17T06:39:06.961Z,99.99
2018-08-17T06:40:07.022Z,99.99
2018-08-17T06:41:07.083Z,99.99
2018-08-17T06:42:07.145Z,99.99
2018-08-17T06:43:07.204Z,99.99
2018-08-17T06:44:07.269Z,99.99
2018-08-17T06:45:07.881Z,99.99
2018-08-17T06:46:07.389Z,99.99
2018-08-17T06:47:07.451Z,99.99
2018-08-17T06:48:07.512Z,99.99
2018-08-17T06:49:07.579Z,99.99
2018-08-17T06:50:07.635Z,99.99
2018-08-17T06:51:07.726Z,99.99
2018-08-17T06:52:07.758Z,99.99
2018-08-17T06:53:07.822Z,99.99
2018-08-17T06:54:07.881Z,99.99
2018-08-17T06:55:07.942Z,99.99
2018-08-17T06:56:08.622Z,99.99
2018-08-17T06:57:08.068Z,99.99
2018-08-17T06:58:08.128Z,99.99
2018-08-17T06:59:08.187Z,99.99
2018-08-17T07:00:08.253Z,99.99
2018-08-17T07:01:08.311Z,99.99
2018-08-17T07:02:08.374Z,99.99
2018-08-17T07:03:08.434Z,99.99
2018-08-17T07:04:08.496Z,99.99
2018-08-17T07:05:08.558Z,99.99
2018-08-17T07:06:08.619Z,99.99
2018-08-17T07:07:08.682Z,99.99
2018-08-17T07:08:08.743Z,99.99
2018-08-17T07:09:08.854Z,99.99
2018-08-17T07:10:08.881Z,99.99
2018-08-17T07:11:08.929Z,99.99
2018-08-17T07:12:08.991Z,99.99
2018-08-17T07:13:09.052Z,99.99
2018-08-17T07:14:09.115Z,99.99
2018-08-17T07:15:09.175Z,99.99
2018-08-17T07:16:09.238Z,99.74
2018-08-17T07:17:09.301Z,99.88
2018-08-17T07:18:09.365Z,99.79
2018-08-17T07:19:09.425Z,99.02
2018-08-17T07:20:09.486Z,98.25
2018-08-17T07:21:09.548Z,97.67
2018-08-17T07:22:09.614Z,97.47
2018-08-17T07:23:09.671Z,96.99
2018-08-17T07:24:09.735Z,96.80
2018-08-17T07:25:09.800Z,96.22
2018-08-17T07:26:09.859Z,96.51
2018-08-17T07:27:09.939Z,96.22
2018-08-17T07:28:09.999Z,95.84
2018-08-17T07:29:10.474Z,95.98
2018-08-17T07:30:10.113Z,94.78
2018-08-17T07:31:10.780Z,95.21
2018-08-17T07:32:10.233Z,94.34
2018-08-17T07:33:10.295Z,94.24
2018-08-17T07:34:10.358Z,93.57
2018-08-17T07:35:10.421Z,93.66
2018-08-17T07:36:10.483Z,93.08
2018-08-17T07:37:10.545Z,93.08
2018-08-17T07:38:10.608Z,91.97
2018-08-17T07:39:10.672Z,91.35
2018-08-17T07:40:10.735Z,91.49
2018-08-17T07:41:10.797Z,90.23
2018-08-17T07:42:10.859Z,89.41
2018-08-17T07:43:10.924Z,87.77
2018-08-17T07:44:10.984Z,87.13
2018-08-17T07:45:11.047Z,86.36
2018-08-17T07:46:11.111Z,85.98
2018-08-17T07:47:11.208Z,85.49
2018-08-17T07:48:11.486Z,84.82
2018-08-17T07:49:11.301Z,83.85
2018-08-17T07:50:11.366Z,83.47
2018-08-17T07:51:11.427Z,83.27
2018-08-17T07:52:11.492Z,83.18
2018-08-17T07:53:11.555Z,82.89
2018-08-17T07:54:11.620Z,82.64
2018-08-17T07:55:11.683Z,82.11
2018-08-17T07:56:11.746Z,82.60
2018-08-17T07:57:11.810Z,82.40
2018-08-17T07:58:11.875Z,82.02
2018-08-17T07:59:11.990Z,82.60
2018-08-17T08:00:12.002Z,82.60
2018-08-17T08:01:12.067Z,82.15
2018-08-17T08:02:12.131Z,82.15
2018-08-17T08:03:12.194Z,82.25
2018-08-17T08:04:12.258Z,82.40
2018-08-17T08:05:12.323Z,82.79
2018-08-17T08:06:12.387Z,83.18
2018-08-17T08:07:12.452Z,84.05
2018-08-17T08:08:12.514Z,83.85
2018-08-17T08:09:12.579Z,83.27
2018-08-17T08:10:12.643Z,82.79
2018-08-17T08:11:12.796Z,82.40
2018-08-17T08:12:12.771Z,82.02
2018-08-17T08:13:12.841Z,82.02
2018-08-17T08:14:12.903Z,81.44
2018-08-17T08:15:12.963Z,81.57
2018-08-17T08:16:13.945Z,81.48
2018-08-17T08:17:13.094Z,81.38
2018-08-17T08:18:13.155Z,81.23
2018-08-17T08:19:13.266Z,80.36
2018-08-17T08:20:13.346Z,80.41
2018-08-17T08:21:13.347Z,80.80
2018-08-17T08:22:13.412Z,79.97
2018-08-17T08:23:13.474Z,79.39
2018-08-17T08:24:13.539Z,79.97
2018-08-17T08:25:13.604Z,79.87
2018-08-17T08:26:13.672Z,78.81
2018-08-17T08:28:16.234Z,77.40
2018-08-17T08:29:16.298Z,77.11
2018-08-17T08:30:16.361Z,77.98
2018-08-17T08:31:16.427Z,78.36
2018-08-17T08:32:16.496Z,78.23
2018-08-17T08:33:16.561Z,78.27
2018-08-17T08:34:16.624Z,77.30
2018-08-17T08:35:16.687Z,77.88
2018-08-17T08:36:16.752Z,78.27
2018-08-17T08:37:16.816Z,77.94
2018-08-17T08:38:16.880Z,77.98
2018-08-17T08:39:16.946Z,78.08
2018-08-17T08:40:17.012Z,77.84
2018-08-17T08:41:17.076Z,78.23
2018-08-17T08:42:17.144Z,79.00
2018-08-17T08:43:17.206Z,78.61
2018-08-17T08:44:17.664Z,78.75
2018-08-17T08:45:17.336Z,78.91
2018-08-17T08:46:17.400Z,79.58
2018-08-17T08:47:17.465Z,79.20
2018-08-17T08:48:17.531Z,79.78
2018-08-17T08:49:17.600Z,79.87
2018-08-17T08:50:18.259Z,79.43
2018-08-17T08:51:18.425Z,79.04
2018-08-17T08:52:17.792Z,78.17
2018-08-17T08:53:17.853Z,78.27
2018-08-17T08:54:17.917Z,78.17
2018-08-17T08:55:17.981Z,77.69
2018-08-17T08:56:18.047Z,78.91
2018-08-17T08:57:18.110Z,79.20
2018-08-17T08:58:18.174Z,79.97
2018-08-17T08:59:18.240Z,79.10
2018-08-17T09:00:18.305Z,79.39
2018-08-17T09:01:18.368Z,79.58
2018-08-17T09:02:18.433Z,79.49
2018-08-17T09:03:18.895Z,79.04
2018-08-17T09:04:18.874Z,78.31
2018-08-17T09:05:18.626Z,77.92
2018-08-17T09:06:18.691Z,77.86
2018-08-17T09:07:18.756Z,76.89
2018-08-17T09:08:18.913Z,76.12
2018-08-17T09:09:18.885Z,76.51
2018-08-17T09:10:18.949Z,75.73
2018-08-17T09:11:19.014Z,75.83
2018-08-17T09:12:19.080Z,76.37
2018-08-17T09:13:19.144Z,77.63
2018-08-17T09:14:19.212Z,77.53
2018-08-17T09:15:19.275Z,77.92
2018-08-17T09:16:19.344Z,78.46
2018-08-17T09:17:19.404Z,79.91
2018-08-17T09:18:19.470Z,79.62
2018-08-17T09:19:19.846Z,78.41
2018-08-17T09:20:19.661Z,78.56
2018-08-17T09:21:19.665Z,79.43
2018-08-17T09:22:19.733Z,79.24
2018-08-17T09:23:19.800Z,78.02
2018-08-17T09:24:19.865Z,77.63
2018-08-17T09:25:19.927Z,76.89
2018-08-17T09:26:19.995Z,76.21
2018-08-17T09:27:20.059Z,76.12
2018-08-17T09:28:20.127Z,76.31
2018-08-17T09:29:20.252Z,75.92
2018-08-17T09:30:20.261Z,75.67
2018-08-17T09:31:20.325Z,75.67
2018-08-17T09:32:20.388Z,75.13
2018-08-17T09:33:20.453Z,75.03
2018-08-17T09:34:20.518Z,75.03
2018-08-17T09:35:20.585Z,74.60
2018-08-17T09:36:20.652Z,74.99
2018-08-17T09:37:20.716Z,76.99
2018-08-17T09:38:20.782Z,78.83
2018-08-17T09:39:20.847Z,79.27
2018-08-17T09:40:20.916Z,79.62
2018-08-17T09:41:20.979Z,82.04
2018-08-17T09:42:21.046Z,82.43
2018-08-17T09:43:21.111Z,80.88
2018-08-17T09:44:21.176Z,80.88
2018-08-17T09:45:21.242Z,80.79
2018-08-17T09:46:21.308Z,79.82
2018-08-17T09:47:21.373Z,80.01
2018-08-17T09:48:21.442Z,79.52
2018-08-17T09:49:21.976Z,79.47
2018-08-17T09:50:21.570Z,79.17
2018-08-17T09:51:21.663Z,78.41
2018-08-17T09:52:21.960Z,78.36
2018-08-17T09:53:21.764Z,78.69
2018-08-17T09:54:21.829Z,78.69
2018-08-17T09:55:21.894Z,78.41
2018-08-17T09:56:21.975Z,78.56
2018-08-17T09:57:22.028Z,78.85
2018-08-17T09:58:22.090Z,79.29
2018-08-17T09:59:22.154Z,79.97
2018-08-17T10:00:22.221Z,80.65
2018-08-17T10:01:22.287Z,81.04
2018-08-17T10:02:22.350Z,81.62
2018-08-17T10:03:22.416Z,81.52
2018-08-17T10:04:22.481Z,80.84
2018-08-17T10:05:22.544Z,81.57
2018-08-17T10:06:22.612Z,82.54
2018-08-17T10:07:22.674Z,83.12
2018-08-17T10:08:22.740Z,82.87
2018-08-17T10:09:22.805Z,82.48
2018-08-17T10:10:22.869Z,82.48
2018-08-17T10:11:22.933Z,81.52
2018-08-17T10:12:22.999Z,81.52
2018-08-17T10:13:23.061Z,81.13
2018-08-17T10:14:23.437Z,81.52
2018-08-17T10:15:23.191Z,81.52
2018-08-17T10:16:23.256Z,81.71
2018-08-17T10:17:23.319Z,81.90
2018-08-17T10:18:23.384Z,81.48
2018-08-17T10:19:23.449Z,81.71
2018-08-17T10:20:23.515Z,81.71
2018-08-17T10:21:23.859Z,81.52
2018-08-17T10:22:23.641Z,80.94
2018-08-17T10:23:23.711Z,80.36
2018-08-17T10:24:23.770Z,80.74
2018-08-17T10:25:23.833Z,79.91
2018-08-17T10:26:23.897Z,79.24
2018-08-17T10:27:23.969Z,79.33
2018-08-17T10:28:24.026Z,78.27
2018-08-17T10:29:24.090Z,77.14
2018-08-17T10:30:24.155Z,77.14
2018-08-17T10:31:24.218Z,77.34
2018-08-17T10:32:24.286Z,76.86
2018-08-17T10:33:24.347Z,76.46
2018-08-17T10:34:24.413Z,76.28
2018-08-17T10:35:24.477Z,76.76
2018-08-17T10:36:24.543Z,76.95
2018-08-17T10:37:24.605Z,75.98
2018-08-17T10:38:24.670Z,76.02
2018-08-17T10:39:24.738Z,76.02
2018-08-17T10:40:24.800Z,75.92
2018-08-17T10:41:24.867Z,75.73
2018-08-17T10:42:24.928Z,75.92
2018-08-17T10:43:24.994Z,75.73
2018-08-17T10:44:25.060Z,75.21
2018-08-17T10:45:25.125Z,75.89
2018-08-17T10:46:25.189Z,75.60
2018-08-17T10:47:25.256Z,75.98
2018-08-17T10:48:25.320Z,76.51
2018-08-17T10:49:25.393Z,75.92
2018-08-17T10:50:25.449Z,75.05
2018-08-17T10:51:25.516Z,74.90
2018-08-17T10:52:25.581Z,73.64
2018-08-17T10:53:25.645Z,72.74
2018-08-17T10:54:25.712Z,70.48
2018-08-17T10:55:25.781Z,68.77
2018-08-17T10:56:25.844Z,67.57
2018-08-17T10:57:25.964Z,68.12
2018-08-17T10:58:25.975Z,65.72
2018-08-17T10:59:26.046Z,64.69
2018-08-17T11:00:26.107Z,63.81
2018-08-17T11:01:26.177Z,63.84
2018-08-17T11:02:26.241Z,64.95
2018-08-17T11:03:26.308Z,66.34
2018-08-17T11:04:26.378Z,67.66
2018-08-17T11:05:26.443Z,68.99
2018-08-17T11:06:26.512Z,69.76
2018-08-17T11:07:26.579Z,68.93
2018-08-17T11:08:26.648Z,68.44
2018-08-17T11:09:26.713Z,68.35
2018-08-17T11:10:26.782Z,68.35
2018-08-17T11:11:26.850Z,67.57
2018-08-17T11:12:26.918Z,66.89
2018-08-17T11:13:27.024Z,67.66
2018-08-17T11:14:27.100Z,67.66
2018-08-17T11:15:27.122Z,67.83
2018-08-17T11:16:27.215Z,67.31
2018-08-17T11:17:27.258Z,66.08
2018-08-17T11:18:27.326Z,65.92
2018-08-17T11:19:27.396Z,63.97
2018-08-17T11:20:28.023Z,61.08
2018-08-17T11:21:28.148Z,61.15
2018-08-17T11:22:28.193Z,60.85
2018-08-17T11:23:27.825Z,60.00
2018-08-17T11:24:28.368Z,59.72
2018-08-17T11:25:28.338Z,59.67
2018-08-17T11:26:27.875Z,58.38
2018-08-17T11:27:27.945Z,59.31
2018-08-17T11:28:28.014Z,57.68
2018-08-17T11:29:28.083Z,55.79
2018-08-17T11:30:28.153Z,53.78
2018-08-17T11:31:28.223Z,53.86
2018-08-17T11:32:28.295Z,52.34
2018-08-17T11:33:28.364Z,52.98
2018-08-17T11:34:28.574Z,53.56
2018-08-17T11:35:28.508Z,53.37
2018-08-17T11:36:28.578Z,53.86
2018-08-17T11:37:28.652Z,53.27
2018-08-17T11:38:28.720Z,52.54
2018-08-17T11:39:28.797Z,52.81
2018-08-17T11:40:28.864Z,52.59
2018-08-17T11:41:29.161Z,54.10
2018-08-17T11:42:29.009Z,55.73
2018-08-17T11:43:29.080Z,55.24
2018-08-17T11:44:29.152Z,56.65
2018-08-17T11:45:29.226Z,57.50
2018-08-17T11:46:29.297Z,57.53
2018-08-17T11:47:29.370Z,56.95
2018-08-17T11:48:29.444Z,56.45
2018-08-17T11:49:29.513Z,54.61
2018-08-17T11:50:29.586Z,53.23
2018-08-17T11:51:29.658Z,51.66
2018-08-17T11:52:29.731Z,52.59
2018-08-17T11:53:29.817Z,52.10
2018-08-17T11:54:29.877Z,51.86
2018-08-17T11:55:29.960Z,51.37
2018-08-17T11:56:30.360Z,51.44
2018-08-17T11:57:30.092Z,52.47
2018-08-17T11:58:30.179Z,53.54
2018-08-17T11:59:30.238Z,52.20
2018-08-17T12:00:30.311Z,51.46
2018-08-17T12:01:30.383Z,51.37
2018-08-17T12:02:30.456Z,52.61
2018-08-17T12:03:30.531Z,52.76
2018-08-17T12:04:30.605Z,53.44
2018-08-17T12:05:30.676Z,53.61
2018-08-17T12:06:30.747Z,53.52
2018-08-17T12:07:30.820Z,53.54
2018-08-17T12:08:30.898Z,53.05
2018-08-17T12:09:30.966Z,55.44
2018-08-17T12:10:31.561Z,55.08
2018-08-17T12:11:31.177Z,54.13
2018-08-17T12:12:31.186Z,53.27
2018-08-17T12:13:31.255Z,52.12
2018-08-17T12:14:31.328Z,51.83
2018-08-17T12:15:31.403Z,51.46
2018-08-17T12:16:31.474Z,50.42
2018-08-17T12:17:31.545Z,50.85
2018-08-17T12:18:31.617Z,52.44
2018-08-17T12:19:31.689Z,53.68
2018-08-17T12:20:31.763Z,53.44
2018-08-17T12:21:31.834Z,52.22
2018-08-17T12:22:31.910Z,53.54
2018-08-17T12:23:31.982Z,53.25
2018-08-17T12:24:32.205Z,53.32
2018-08-17T12:25:32.126Z,52.78
2018-08-17T12:26:32.199Z,51.81
2018-08-17T12:27:32.273Z,53.74
2018-08-17T12:28:32.344Z,54.56
2018-08-17T12:29:32.419Z,56.65
2018-08-17T12:30:32.495Z,58.74
2018-08-17T12:31:32.563Z,59.69
2018-08-17T12:32:32.637Z,59.98
2018-08-17T12:33:32.708Z,60.85
2018-08-17T12:34:33.038Z,60.14
2018-08-17T12:35:32.853Z,59.78
2018-08-17T12:36:32.929Z,60.00
2018-08-17T12:37:32.996Z,59.75
2018-08-17T12:38:33.066Z,62.03
2018-08-17T12:39:33.137Z,63.23
2018-08-17T12:40:33.209Z,63.29
2018-08-17T12:41:33.280Z,63.49
2018-08-17T12:42:33.350Z,63.03
2018-08-17T12:43:33.420Z,62.64
2018-08-17T12:44:33.491Z,62.38
2018-08-17T12:45:33.562Z,59.91
2018-08-17T12:46:33.670Z,59.42
2018-08-17T12:47:33.705Z,59.45
2018-08-17T12:48:33.770Z,58.34
2018-08-17T12:49:33.840Z,57.75
2018-08-17T12:50:33.916Z,55.69
2018-08-17T12:51:33.983Z,54.64
2018-08-17T12:52:34.071Z,55.73
2018-08-17T12:53:34.123Z,57.76
2018-08-17T12:54:34.190Z,60.72
2018-08-17T12:55:34.261Z,61.38
2018-08-17T12:56:34.331Z,61.41
2018-08-17T12:57:34.400Z,62.38
2018-08-17T12:58:34.471Z,61.21